Time;durP1;ratioP1;P1;durP2;ratioP2;P2;SDS_P1;SDS_P2;PMS_P1;PMS_P2;Temp;Humidity;BMP_temperature;BMP_pressure;BME280_temperature;BME280_humidity;BME280_pressure;Samples;Min_cycle;Max_cycle;Signal;HPM_P1;HPM_P2
2023/03/11 00:00:17;;;;;;;0.20;0.20;;;;;;;;;;4823323;29;20038;-76
2023/03/11 00:02:44;;;;;;;0.20;0.20;;;;;;;;;;4832210;29;20050;-76
2023/03/11 00:05:16;;;;;;;0.20;0.20;;;;;;;;;;4824375;29;20045;-75
2023/03/11 00:07:42;;;;;;;0.20;0.20;;;;;;;;;;4823066;29;20081;-75
2023/03/11 00:10:13;;;;;;;0.17;0.17;;;;;;;;;;4824807;29;20049;-76
2023/03/11 00:12:39;;;;;;;0.20;0.20;;;;;;;;;;4824431;29;20046;-75
2023/03/11 00:15:05;;;;;;;0.10;0.10;;;;;;;;;;4822717;29;20166;-76
2023/03/11 00:17:31;;;;;;;0.20;0.20;;;;;;;;;;4824358;29;20057;-75
2023/03/11 00:19:57;;;;;;;0.20;0.20;;;;;;;;;;4824546;29;20567;-76
2023/03/11 00:22:23;;;;;;;0.20;0.20;;;;;;;;;;4824680;29;20050;-75
2023/03/11 00:24:49;;;;;;;0.10;0.10;;;;;;;;;;4825236;29;20053;-76
2023/03/11 00:27:15;;;;;;;0.20;0.20;;;;;;;;;;4828507;29;20384;-76
2023/03/11 00:29:41;;;;;;;0.20;0.20;;;;;;;;;;4827121;29;20516;-75
2023/03/11 00:32:07;;;;;;;0.10;0.10;;;;;;;;;;4824537;29;20469;-76
2023/03/11 00:34:36;;;;;;;0.10;0.10;;;;;;;;;;4824877;29;20130;-76
2023/03/11 00:37:02;;;;;;;0.20;0.20;;;;;;;;;;4823062;29;20056;-76
2023/03/11 00:39:28;;;;;;;0.10;0.10;;;;;;;;;;4824734;29;20038;-76
2023/03/11 00:41:55;;;;;;;0.10;0.10;;;;;;;;;;4839142;29;20133;-76
2023/03/11 00:44:21;;;;;;;0.20;0.20;;;;;;;;;;4829240;29;20057;-75
2023/03/11 00:46:47;;;;;;;0.10;0.10;;;;;;;;;;4824456;29;20557;-76
2023/03/11 00:49:14;;;;;;;0.17;0.17;;;;;;;;;;4823876;29;20113;-76
2023/03/11 00:51:40;;;;;;;0.20;0.20;;;;;;;;;;4822594;29;20058;-76
2023/03/11 00:54:06;;;;;;;0.10;0.10;;;;;;;;;;4822205;29;20558;-76
2023/03/11 00:56:32;;;;;;;0.20;0.20;;;;;;;;;;4821956;29;20094;-76
2023/03/11 00:58:58;;;;;;;0.20;0.20;;;;;;;;;;4840436;29;20050;-75
2023/03/11 01:01:27;;;;;;;0.20;0.20;;;;;;;;;;4820718;29;20101;-76
2023/03/11 01:03:53;;;;;;;0.20;0.20;;;;;;;;;;4837353;29;20174;-75
2023/03/11 01:06:19;;;;;;;0.13;0.13;;;;;;;;;;4839701;29;20125;-75
2023/03/11 01:08:45;;;;;;;0.15;0.15;;;;;;;;;;4824504;29;20508;-75
2023/03/11 01:11:11;;;;;;;0.20;0.20;;;;;;;;;;4824219;29;20376;-75
2023/03/11 01:13:39;;;;;;;0.20;0.20;;;;;;;;;;4839245;29;20536;-75
2023/03/11 01:16:06;;;;;;;0.10;0.10;;;;;;;;;;4823648;29;20061;-75
2023/03/11 01:18:34;;;;;;;0.10;0.10;;;;;;;;;;4823391;29;20190;-76
2023/03/11 01:21:00;;;;;;;0.10;0.10;;;;;;;;;;4846525;29;20502;-75
2023/03/11 01:23:26;;;;;;;0.10;0.10;;;;;;;;;;4824321;29;20322;-75
2023/03/11 01:25:52;;;;;;;0.13;0.13;;;;;;;;;;4840441;29;20054;-76
2023/03/11 01:28:18;;;;;;;0.20;0.20;;;;;;;;;;4839089;29;20174;-76
2023/03/11 01:30:45;;;;;;;0.20;0.20;;;;;;;;;;4824015;29;20060;-76
2023/03/11 01:33:15;;;;;;;0.10;0.10;;;;;;;;;;4823337;29;20045;-76
2023/03/11 01:35:42;;;;;;;0.20;0.20;;;;;;;;;;4823217;29;20423;-76
2023/03/11 01:38:08;;;;;;;0.15;0.15;;;;;;;;;;4839653;29;20049;-76
2023/03/11 01:40:36;;;;;;;0.10;0.10;;;;;;;;;;4834405;29;20041;-75
2023/03/11 01:43:03;;;;;;;0.20;0.20;;;;;;;;;;4820072;29;20056;-76
2023/03/11 01:46:02;;;;;;;0.20;0.20;;;;;;;;;;4823069;29;20042;-75
2023/03/11 01:48:31;;;;;;;0.10;0.10;;;;;;;;;;4818594;29;20132;-75
2023/03/11 01:50:58;;;;;;;0.20;0.20;;;;;;;;;;4823703;29;20053;-75
2023/03/11 01:53:24;;;;;;;0.20;0.20;;;;;;;;;;4822702;29;20038;-74
2023/03/11 01:55:51;;;;;;;0.20;0.20;;;;;;;;;;4822660;29;20498;-75
2023/03/11 01:58:23;;;;;;;0.20;0.20;;;;;;;;;;4837416;29;20049;-75
2023/03/11 02:00:49;;;;;;;0.20;0.20;;;;;;;;;;4822645;29;20077;-75
2023/03/11 02:03:21;;;;;;;0.20;0.20;;;;;;;;;;4830391;29;20114;-75
2023/03/11 02:05:47;;;;;;;0.20;0.20;;;;;;;;;;4837149;29;20056;-75
2023/03/11 02:08:13;;;;;;;0.20;0.20;;;;;;;;;;4838400;29;20081;-75
2023/03/11 02:10:41;;;;;;;0.10;0.10;;;;;;;;;;4838418;29;20056;-75
2023/03/11 02:13:07;;;;;;;0.20;0.20;;;;;;;;;;4838273;29;20045;-75
2023/03/11 02:15:33;;;;;;;0.20;0.20;;;;;;;;;;4822418;29;20110;-75
2023/03/11 02:18:01;;;;;;;0.20;0.20;;;;;;;;;;4839724;29;20057;-75
2023/03/11 02:20:28;;;;;;;0.20;0.20;;;;;;;;;;4838776;29;20079;-75
2023/03/11 02:22:56;;;;;;;0.20;0.20;;;;;;;;;;4823893;29;20068;-74
2023/03/11 02:25:31;;;;;;;0.20;0.20;;;;;;;;;;4824983;29;20058;-75
2023/03/11 02:27:58;;;;;;;0.20;0.20;;;;;;;;;;4838123;29;20054;-75
2023/03/11 02:30:26;;;;;;;0.15;0.15;;;;;;;;;;4824261;29;20052;-74
2023/03/11 02:32:58;;;;;;;0.20;0.20;;;;;;;;;;4839742;29;20054;-75
2023/03/11 02:35:24;;;;;;;0.20;0.20;;;;;;;;;;4838400;29;20106;-75
2023/03/11 02:37:51;;;;;;;0.13;0.13;;;;;;;;;;4822655;29;20062;-75
2023/03/11 02:40:23;;;;;;;0.20;0.20;;;;;;;;;;4821826;29;20059;-74
2023/03/11 02:42:56;;;;;;;0.20;0.20;;;;;;;;;;4820659;29;20106;-74
2023/03/11 02:45:24;;;;;;;0.10;0.10;;;;;;;;;;4838266;29;20530;-75
2023/03/11 02:47:50;;;;;;;0.13;0.13;;;;;;;;;;4822597;29;20049;-75
2023/03/11 02:50:17;;;;;;;0.13;0.13;;;;;;;;;;4821703;29;20047;-75
2023/03/11 02:52:43;;;;;;;0.10;0.10;;;;;;;;;;4821563;29;20051;-74
2023/03/11 02:55:10;;;;;;;0.20;0.20;;;;;;;;;;4834484;29;20080;-75
2023/03/11 02:57:37;;;;;;;0.20;0.20;;;;;;;;;;4821175;29;20456;-75
2023/03/11 03:00:09;;;;;;;0.15;0.15;;;;;;;;;;4822542;29;20553;-75
2023/03/11 03:02:38;;;;;;;0.20;0.20;;;;;;;;;;4820543;29;20062;-75
2023/03/11 03:05:04;;;;;;;0.20;0.20;;;;;;;;;;4817779;29;20491;-75
2023/03/11 03:07:31;;;;;;;0.20;0.20;;;;;;;;;;4820655;29;20145;-75
2023/03/11 03:09:57;;;;;;;0.15;0.15;;;;;;;;;;4820284;29;20449;-75
2023/03/11 03:12:23;;;;;;;0.10;0.10;;;;;;;;;;4821792;29;20101;-75
2023/03/11 03:14:52;;;;;;;0.20;0.20;;;;;;;;;;4839721;29;20233;-75
2023/03/11 03:17:18;;;;;;;0.20;0.20;;;;;;;;;;4819792;29;20125;-75
2023/03/11 03:19:47;;;;;;;0.20;0.20;;;;;;;;;;4834818;29;20065;-75
2023/03/11 03:22:13;;;;;;;0.13;0.13;;;;;;;;;;4825657;29;20050;-76
2023/03/11 03:24:39;;;;;;;0.15;0.15;;;;;;;;;;4826977;29;20092;-75
2023/03/11 03:27:06;;;;;;;0.20;0.20;;;;;;;;;;4832062;29;20512;-75
2023/03/11 03:29:32;;;;;;;0.20;0.20;;;;;;;;;;4825671;29;20078;-75
2023/03/11 03:31:58;;;;;;;0.20;0.20;;;;;;;;;;4823756;29;20133;-75
2023/03/11 03:34:24;;;;;;;0.20;0.20;;;;;;;;;;4825950;29;20073;-75
2023/03/11 03:36:50;;;;;;;0.20;0.20;;;;;;;;;;4840935;29;20053;-75
2023/03/11 03:39:18;;;;;;;0.20;0.20;;;;;;;;;;4841666;29;20038;-74
2023/03/11 03:41:44;;;;;;;0.20;0.20;;;;;;;;;;4823949;29;20053;-75
2023/03/11 03:44:10;;;;;;;0.20;0.20;;;;;;;;;;4825435;29;20050;-74
2023/03/11 03:46:39;;;;;;;0.20;0.20;;;;;;;;;;4824270;29;20503;-74
2023/03/11 03:49:05;;;;;;;0.17;0.17;;;;;;;;;;4838404;29;20050;-75
2023/03/11 03:51:31;;;;;;;0.20;0.20;;;;;;;;;;4822140;29;20049;-74
2023/03/11 03:53:57;;;;;;;0.20;0.20;;;;;;;;;;4828657;29;20129;-74
2023/03/11 03:56:23;;;;;;;0.17;0.17;;;;;;;;;;4844100;29;20058;-74
2023/03/11 03:58:49;;;;;;;0.20;0.20;;;;;;;;;;4833347;29;20125;-74
2023/03/11 04:01:15;;;;;;;0.20;0.20;;;;;;;;;;4839822;29;20407;-74
2023/03/11 04:03:42;;;;;;;0.20;0.20;;;;;;;;;;4823498;29;20054;-75
2023/03/11 04:06:28;;;;;;;0.20;0.20;;;;;;;;;;4825550;29;20518;-75
2023/03/11 04:08:54;;;;;;;0.20;0.20;;;;;;;;;;4809958;29;20046;-74
2023/03/11 04:11:20;;;;;;;0.10;0.10;;;;;;;;;;4840487;29;20048;-73
2023/03/11 04:13:46;;;;;;;0.20;0.20;;;;;;;;;;4841611;29;20042;-76
2023/03/11 04:16:16;;;;;;;0.10;0.10;;;;;;;;;;4841067;29;20054;-73
2023/03/11 04:18:43;;;;;;;0.20;0.20;;;;;;;;;;4841677;29;20093;-74
2023/03/11 04:21:09;;;;;;;0.20;0.20;;;;;;;;;;4824796;29;20502;-74
2023/03/11 04:23:35;;;;;;;0.20;0.20;;;;;;;;;;4843267;29;20062;-75
2023/03/11 04:26:01;;;;;;;0.10;0.10;;;;;;;;;;4840893;29;20124;-74
2023/03/11 04:28:27;;;;;;;0.20;0.20;;;;;;;;;;4823119;29;20106;-74
2023/03/11 04:30:53;;;;;;;0.20;0.20;;;;;;;;;;4823157;29;20102;-74
2023/03/11 04:33:19;;;;;;;0.20;0.20;;;;;;;;;;4840851;29;20081;-74
2023/03/11 04:35:45;;;;;;;0.17;0.17;;;;;;;;;;4844632;29;20068;-74
2023/03/11 04:38:11;;;;;;;0.20;0.20;;;;;;;;;;4827981;29;20141;-74
2023/03/11 04:40:40;;;;;;;0.20;0.20;;;;;;;;;;4824551;29;20073;-74
2023/03/11 04:43:06;;;;;;;0.10;0.10;;;;;;;;;;4823031;29;20046;-74
2023/03/11 04:45:32;;;;;;;0.20;0.20;;;;;;;;;;4824856;29;20053;-74
2023/03/11 04:47:58;;;;;;;0.20;0.20;;;;;;;;;;4824476;29;20050;-74
2023/03/11 04:50:25;;;;;;;0.20;0.20;;;;;;;;;;4836342;29;20073;-74
2023/03/11 04:52:51;;;;;;;0.20;0.20;;;;;;;;;;4824909;29;20406;-74
2023/03/11 04:55:17;;;;;;;0.20;0.20;;;;;;;;;;4824151;29;20046;-73
2023/03/11 04:57:43;;;;;;;0.20;0.20;;;;;;;;;;4823860;29;20046;-74
2023/03/11 05:00:10;;;;;;;0.20;0.20;;;;;;;;;;4839882;29;20231;-73
2023/03/11 05:02:37;;;;;;;0.10;0.10;;;;;;;;;;4840790;29;20198;-74
2023/03/11 05:05:03;;;;;;;0.20;0.20;;;;;;;;;;4837285;29;20513;-74
2023/03/11 05:07:29;;;;;;;0.20;0.20;;;;;;;;;;4839457;29;20053;-74
2023/03/11 05:09:55;;;;;;;0.10;0.10;;;;;;;;;;4840775;29;20075;-74
2023/03/11 05:12:21;;;;;;;0.20;0.20;;;;;;;;;;4839156;29;20514;-74
2023/03/11 05:14:47;;;;;;;0.10;0.10;;;;;;;;;;4840769;29;20046;-74
2023/03/11 05:17:13;;;;;;;0.20;0.20;;;;;;;;;;4848050;29;20038;-74
2023/03/11 05:19:40;;;;;;;0.20;0.20;;;;;;;;;;4852003;29;20050;-74
2023/03/11 05:22:07;;;;;;;0.20;0.20;;;;;;;;;;4823663;29;20099;-74
2023/03/11 05:24:33;;;;;;;0.10;0.10;;;;;;;;;;4834446;29;20046;-74
2023/03/11 05:27:00;;;;;;;0.20;0.20;;;;;;;;;;4823858;29;20050;-74
2023/03/11 05:29:26;;;;;;;0.10;0.10;;;;;;;;;;4847831;29;20109;-73
2023/03/11 05:31:52;;;;;;;0.10;0.10;;;;;;;;;;4830088;29;20087;-74
2023/03/11 05:34:18;;;;;;;0.17;0.17;;;;;;;;;;4841039;29;20551;-74
2023/03/11 05:36:44;;;;;;;0.20;0.20;;;;;;;;;;4828595;29;20118;-73
2023/03/11 05:39:10;;;;;;;0.13;0.13;;;;;;;;;;4823926;29;20065;-75
2023/03/11 05:41:37;;;;;;;0.20;0.20;;;;;;;;;;4847769;29;20524;-76
2023/03/11 05:44:05;;;;;;;0.20;0.20;;;;;;;;;;4847054;29;20518;-75
2023/03/11 05:46:31;;;;;;;0.20;0.20;;;;;;;;;;4845101;29;20057;-76
2023/03/11 05:49:01;;;;;;;0.20;0.20;;;;;;;;;;4855109;29;20048;-75
2023/03/11 05:51:27;;;;;;;0.13;0.13;;;;;;;;;;4844436;29;20042;-75
2023/03/11 05:53:53;;;;;;;0.20;0.20;;;;;;;;;;4839719;29;20489;-75
2023/03/11 05:56:20;;;;;;;0.13;0.13;;;;;;;;;;4856833;29;20057;-75
2023/03/11 05:58:46;;;;;;;0.20;0.20;;;;;;;;;;4843488;29;20056;-74
2023/03/11 06:01:16;;;;;;;0.20;0.20;;;;;;;;;;4841171;29;20631;-75
2023/03/11 06:03:42;;;;;;;0.20;0.20;;;;;;;;;;4857535;29;20060;-75
2023/03/11 06:06:09;;;;;;;0.20;0.20;;;;;;;;;;4842306;29;20046;-76
2023/03/11 06:08:36;;;;;;;0.20;0.20;;;;;;;;;;4833233;29;20092;-75
2023/03/11 06:11:03;;;;;;;0.20;0.20;;;;;;;;;;4823461;29;20400;-74
2023/03/11 06:13:32;;;;;;;0.20;0.20;;;;;;;;;;4822879;29;20052;-74
2023/03/11 06:15:58;;;;;;;0.20;0.20;;;;;;;;;;4839929;29;20117;-74
2023/03/11 06:18:27;;;;;;;0.20;0.20;;;;;;;;;;4823052;29;20064;-75
2023/03/11 06:20:57;;;;;;;0.20;0.20;;;;;;;;;;4822920;29;20118;-75
2023/03/11 06:23:23;;;;;;;0.10;0.10;;;;;;;;;;4839669;29;20052;-75
2023/03/11 06:25:59;;;;;;;0.20;0.20;;;;;;;;;;4823722;29;20355;-75
2023/03/11 06:28:25;;;;;;;0.20;0.20;;;;;;;;;;4837772;29;20077;-75
2023/03/11 06:30:51;;;;;;;0.10;0.10;;;;;;;;;;4823348;29;20081;-75
2023/03/11 06:33:17;;;;;;;0.10;0.10;;;;;;;;;;4838794;29;20079;-75
2023/03/11 06:35:43;;;;;;;0.20;0.20;;;;;;;;;;4839822;29;20050;-76
2023/03/11 06:38:09;;;;;;;0.10;0.10;;;;;;;;;;4822544;29;20073;-75
2023/03/11 06:40:40;;;;;;;0.20;0.20;;;;;;;;;;4842637;29;20609;-75
2023/03/11 06:43:07;;;;;;;0.20;0.20;;;;;;;;;;4832292;29;20050;-74
2023/03/11 06:45:33;;;;;;;0.10;0.10;;;;;;;;;;4838678;29;20519;-74
2023/03/11 06:47:59;;;;;;;0.10;0.10;;;;;;;;;;4822880;29;20058;-76
2023/03/11 06:50:25;;;;;;;0.10;0.10;;;;;;;;;;4822096;29;20141;-75
2023/03/11 06:52:51;;;;;;;0.20;0.20;;;;;;;;;;4823956;29;20056;-74
2023/03/11 06:55:17;;;;;;;0.20;0.20;;;;;;;;;;4846877;29;20054;-76
2023/03/11 06:57:53;;;;;;;0.10;0.10;;;;;;;;;;4825425;29;20046;-77
2023/03/11 07:00:19;;;;;;;0.10;0.10;;;;;;;;;;4826559;29;20280;-75
2023/03/11 07:02:45;;;;;;;0.20;0.20;;;;;;;;;;4825977;29;20046;-74
2023/03/11 07:05:11;;;;;;;0.10;0.10;;;;;;;;;;4826113;29;20122;-74
2023/03/11 07:07:37;;;;;;;0.20;0.20;;;;;;;;;;4822566;29;20110;-73
2023/03/11 07:10:04;;;;;;;0.20;0.20;;;;;;;;;;4842574;29;20050;-74
2023/03/11 07:12:30;;;;;;;0.20;0.20;;;;;;;;;;4825214;29;20081;-75
2023/03/11 07:15:00;;;;;;;0.20;0.20;;;;;;;;;;4843017;29;20110;-74
2023/03/11 07:17:26;;;;;;;0.20;0.20;;;;;;;;;;4840959;29;20054;-74
2023/03/11 07:19:52;;;;;;;0.10;0.10;;;;;;;;;;4841914;29;20065;-74
2023/03/11 07:22:18;;;;;;;0.20;0.20;;;;;;;;;;4826066;29;20133;-77
2023/03/11 07:24:48;;;;;;;0.20;0.20;;;;;;;;;;4836264;29;20064;-76
2023/03/11 07:27:17;;;;;;;0.20;0.20;;;;;;;;;;4825764;29;20132;-77
2023/03/11 07:29:43;;;;;;;0.20;0.20;;;;;;;;;;4826640;29;20502;-76
2023/03/11 07:32:09;;;;;;;0.20;0.20;;;;;;;;;;4842478;29;20464;-75
2023/03/11 07:34:35;;;;;;;0.20;0.20;;;;;;;;;;4842622;29;20423;-76
2023/03/11 07:37:01;;;;;;;0.20;0.20;;;;;;;;;;4825308;29;20054;-75
2023/03/11 07:39:27;;;;;;;0.10;0.10;;;;;;;;;;4841070;29;20455;-75
2023/03/11 07:41:53;;;;;;;0.20;0.20;;;;;;;;;;4822900;29;20045;-77
2023/03/11 07:44:20;;;;;;;0.17;0.17;;;;;;;;;;4834105;29;20045;-77
2023/03/11 07:46:46;;;;;;;0.15;0.15;;;;;;;;;;4846529;29;20046;-76
2023/03/11 07:49:12;;;;;;;0.20;0.20;;;;;;;;;;4831682;29;20057;-76
2023/03/11 07:51:42;;;;;;;0.20;0.20;;;;;;;;;;4839200;29;20053;-76
2023/03/11 07:54:10;;;;;;;0.20;0.20;;;;;;;;;;4841886;29;20054;-75
2023/03/11 07:56:37;;;;;;;0.20;0.20;;;;;;;;;;4824898;29;20054;-75
2023/03/11 07:59:03;;;;;;;0.20;0.20;;;;;;;;;;4823704;29;20052;-76
2023/03/11 08:01:34;;;;;;;0.20;0.20;;;;;;;;;;4825860;29;20440;-75
2023/03/11 08:04:01;;;;;;;0.20;0.20;;;;;;;;;;4828002;29;20097;-76
2023/03/11 08:06:30;;;;;;;0.20;0.20;;;;;;;;;;4842545;29;20095;-76
2023/03/11 08:08:56;;;;;;;0.20;0.20;;;;;;;;;;4819978;29;20499;-75
2023/03/11 08:11:23;;;;;;;0.20;0.20;;;;;;;;;;4839573;29;20106;-76
2023/03/11 08:13:49;;;;;;;0.20;0.20;;;;;;;;;;4823429;29;20049;-76
2023/03/11 08:16:16;;;;;;;0.20;0.20;;;;;;;;;;4825472;29;20157;-76
2023/03/11 08:18:42;;;;;;;0.20;0.20;;;;;;;;;;4842387;29;20095;-77
2023/03/11 08:21:09;;;;;;;0.20;0.20;;;;;;;;;;4824700;29;20045;-77
2023/03/11 08:24:01;;;;;;;0.20;0.20;;;;;;;;;;4842691;29;20317;-79
2023/03/11 08:26:30;;;;;;;0.20;0.20;;;;;;;;;;4829894;29;20436;-77
2023/03/11 08:28:56;;;;;;;0.20;0.20;;;;;;;;;;4824546;29;20439;-77
2023/03/11 08:31:27;;;;;;;0.20;0.20;;;;;;;;;;4827153;29;20042;-77
2023/03/11 08:33:53;;;;;;;0.20;0.20;;;;;;;;;;4828985;29;20045;-79
2023/03/11 08:36:22;;;;;;;0.20;0.20;;;;;;;;;;4834825;29;20045;-77
2023/03/11 08:38:48;;;;;;;0.20;0.20;;;;;;;;;;4825101;29;20107;-78
2023/03/11 08:41:35;;;;;;;0.20;0.20;;;;;;;;;;4841845;29;20057;-79
2023/03/11 08:44:01;;;;;;;0.20;0.20;;;;;;;;;;4827642;29;20550;-78
2023/03/11 08:46:35;;;;;;;0.20;0.20;;;;;;;;;;4834616;29;20386;-76
2023/03/11 08:49:01;;;;;;;0.20;0.20;;;;;;;;;;4828144;29;20052;-77
2023/03/11 08:51:28;;;;;;;0.20;0.20;;;;;;;;;;4822226;29;20109;-78
2023/03/11 08:53:54;;;;;;;0.20;0.20;;;;;;;;;;4853469;29;20489;-78
2023/03/11 08:56:20;;;;;;;0.20;0.20;;;;;;;;;;4824744;29;20398;-77
2023/03/11 08:58:49;;;;;;;0.20;0.20;;;;;;;;;;4830243;29;20084;-77
2023/03/11 09:01:19;;;;;;;0.20;0.20;;;;;;;;;;4853300;29;20045;-79
2023/03/11 09:03:48;;;;;;;0.20;0.20;;;;;;;;;;4828085;29;20144;-77
2023/03/11 09:06:15;;;;;;;0.20;0.20;;;;;;;;;;4837742;29;20042;-79
2023/03/11 09:08:41;;;;;;;0.20;0.20;;;;;;;;;;4827609;29;20076;-77
2023/03/11 09:11:12;;;;;;;0.20;0.20;;;;;;;;;;4825089;29;20509;-78
2023/03/11 09:13:39;;;;;;;0.20;0.20;;;;;;;;;;4843145;29;20053;-78
2023/03/11 09:16:07;;;;;;;0.20;0.20;;;;;;;;;;4829142;29;20049;-78
2023/03/11 09:18:33;;;;;;;0.20;0.20;;;;;;;;;;4828618;29;20061;-78
2023/03/11 09:20:59;;;;;;;0.20;0.20;;;;;;;;;;4840523;29;20129;-78
2023/03/11 09:23:32;;;;;;;0.20;0.20;;;;;;;;;;4836368;29;20061;-78
2023/03/11 09:25:58;;;;;;;0.30;0.30;;;;;;;;;;4826784;29;20089;-78
2023/03/11 09:28:28;;;;;;;0.20;0.20;;;;;;;;;;4864679;29;20179;-78
2023/03/11 09:30:54;;;;;;;0.20;0.20;;;;;;;;;;4838350;29;20056;-78
2023/03/11 09:33:20;;;;;;;0.17;0.17;;;;;;;;;;4843184;29;20398;-78
2023/03/11 09:35:46;;;;;;;0.20;0.20;;;;;;;;;;4824363;29;20133;-78
2023/03/11 09:38:12;;;;;;;0.20;0.20;;;;;;;;;;4840020;29;20049;-78
2023/03/11 09:40:48;;;;;;;0.20;0.20;;;;;;;;;;4824014;29;20052;-78
2023/03/11 09:43:20;;;;;;;0.20;0.20;;;;;;;;;;4839802;29;20050;-78
2023/03/11 09:45:53;;;;;;;0.20;0.20;;;;;;;;;;4838914;29;20427;-79
2023/03/11 09:48:22;;;;;;;0.20;0.20;;;;;;;;;;4840505;29;20140;-79
2023/03/11 09:51:08;;;;;;;0.20;0.20;;;;;;;;;;4836003;29;20049;-78
2023/03/11 09:53:41;;;;;;;0.20;0.20;;;;;;;;;;4840267;29;20510;-78
2023/03/11 09:56:19;;;;;;;0.20;0.20;;;;;;;;;;4847559;29;20076;-78
2023/03/11 09:58:54;;;;;;;0.20;0.20;;;;;;;;;;4844343;29;20045;-78
2023/03/11 10:01:23;;;;;;;0.20;0.20;;;;;;;;;;4839630;29;20053;-78
2023/03/11 10:03:52;;;;;;;0.20;0.20;;;;;;;;;;4841907;29;20084;-77
2023/03/11 10:06:24;;;;;;;0.20;0.20;;;;;;;;;;4835710;29;20578;-78
2023/03/11 10:08:59;;;;;;;0.15;0.15;;;;;;;;;;4839625;29;20045;-77
2023/03/11 10:11:47;;;;;;;0.20;0.20;;;;;;;;;;4823921;29;20058;-77
2023/03/11 10:14:27;;;;;;;0.20;0.20;;;;;;;;;;4806032;29;20054;-78
2023/03/11 10:17:11;;;;;;;0.20;0.20;;;;;;;;;;4850302;29;20049;-78
2023/03/11 10:19:50;;;;;;;0.20;0.20;;;;;;;;;;4824567;29;20053;-77
2023/03/11 10:22:34;;;;;;;0.15;0.15;;;;;;;;;;4821431;29;20056;-78
2023/03/11 10:25:06;;;;;;;0.20;0.20;;;;;;;;;;4857415;29;20068;-78
2023/03/11 10:27:40;;;;;;;0.20;0.20;;;;;;;;;;4837319;29;20060;-78
2023/03/11 10:30:13;;;;;;;0.20;0.20;;;;;;;;;;4836425;29;20134;-79
2023/03/11 10:32:58;;;;;;;0.20;0.20;;;;;;;;;;4841906;29;20487;-78
2023/03/11 10:35:26;;;;;;;0.20;0.20;;;;;;;;;;4826652;29;20049;-77
2023/03/11 10:37:55;;;;;;;0.20;0.20;;;;;;;;;;4827334;29;20050;-79
2023/03/11 10:40:27;;;;;;;0.20;0.20;;;;;;;;;;4826797;29;20050;-79
2023/03/11 10:42:54;;;;;;;0.20;0.20;;;;;;;;;;4842526;29;20086;-78
2023/03/11 10:45:22;;;;;;;0.20;0.20;;;;;;;;;;4823238;29;20529;-78
2023/03/11 10:47:48;;;;;;;0.15;0.15;;;;;;;;;;4839912;29;20053;-79
2023/03/11 10:50:18;;;;;;;0.20;0.20;;;;;;;;;;4839031;29;20503;-77
2023/03/11 10:53:04;;;;;;;0.20;0.20;;;;;;;;;;4822127;29;20046;-78
2023/03/11 10:55:32;;;;;;;0.10;0.10;;;;;;;;;;4839292;29;20042;-79
2023/03/11 10:58:06;;;;;;;0.20;0.20;;;;;;;;;;4841981;29;20102;-78
2023/03/11 11:00:32;;;;;;;0.20;0.20;;;;;;;;;;4822826;29;20098;-78
2023/03/11 11:03:00;;;;;;;0.20;0.20;;;;;;;;;;4821319;29;20097;-79
2023/03/11 11:05:31;;;;;;;0.20;0.20;;;;;;;;;;4843753;29;20084;-78
2023/03/11 11:08:06;;;;;;;0.20;0.20;;;;;;;;;;4841575;29;20061;-79
2023/03/11 11:10:33;;;;;;;0.10;0.10;;;;;;;;;;4820886;29;20052;-79
2023/03/11 11:13:02;;;;;;;0.20;0.20;;;;;;;;;;4837453;29;20046;-80
2023/03/11 11:15:31;;;;;;;0.20;0.20;;;;;;;;;;4838999;29;20515;-79
2023/03/11 11:18:05;;;;;;;0.20;0.20;;;;;;;;;;4822270;29;20061;-79
2023/03/11 11:20:32;;;;;;;0.20;0.20;;;;;;;;;;4834110;29;20081;-79
2023/03/11 11:22:59;;;;;;;0.20;0.20;;;;;;;;;;4837293;29;20560;-79
2023/03/11 11:25:32;;;;;;;0.20;0.20;;;;;;;;;;4822334;29;20066;-80
2023/03/11 11:28:18;;;;;;;0.20;0.20;;;;;;;;;;4821337;29;20153;-79
2023/03/11 11:30:55;;;;;;;0.20;0.20;;;;;;;;;;4838475;29;20137;-79
2023/03/11 11:33:31;;;;;;;0.20;0.20;;;;;;;;;;4839512;29;20058;-79
2023/03/11 11:35:59;;;;;;;0.20;0.20;;;;;;;;;;4838743;29;20057;-79
2023/03/11 11:38:30;;;;;;;0.20;0.20;;;;;;;;;;4838495;29;20528;-78
2023/03/11 11:40:58;;;;;;;0.20;0.20;;;;;;;;;;4841184;29;20050;-79
2023/03/11 11:43:35;;;;;;;0.10;0.10;;;;;;;;;;4825081;29;20384;-78
2023/03/11 11:46:08;;;;;;;0.20;0.20;;;;;;;;;;4846902;29;20061;-79
2023/03/11 11:48:46;;;;;;;0.20;0.20;;;;;;;;;;4850265;29;20049;-80
2023/03/11 11:51:31;;;;;;;0.20;0.20;;;;;;;;;;4843108;29;20046;-80
2023/03/11 11:54:09;;;;;;;0.20;0.20;;;;;;;;;;4823352;29;20083;-79
2023/03/11 11:56:39;;;;;;;0.20;0.20;;;;;;;;;;4840768;29;20093;-79
2023/03/11 11:59:13;;;;;;;0.20;0.20;;;;;;;;;;4840905;29;20050;-79
2023/03/11 12:01:48;;;;;;;0.10;0.10;;;;;;;;;;4840912;29;20511;-79
2023/03/11 12:04:20;;;;;;;0.20;0.20;;;;;;;;;;4825629;29;20056;-76
2023/03/11 12:06:59;;;;;;;0.10;0.10;;;;;;;;;;4840498;29;20129;-79
2023/03/11 12:09:43;;;;;;;0.20;0.20;;;;;;;;;;4841367;29;20045;-79
2023/03/11 12:12:15;;;;;;;0.20;0.20;;;;;;;;;;4829478;29;20046;-81
2023/03/11 12:14:53;;;;;;;0.20;0.20;;;;;;;;;;4821545;29;20066;-80
2023/03/11 12:17:22;;;;;;;0.13;0.13;;;;;;;;;;4834675;29;20110;-79
2023/03/11 12:19:55;;;;;;;0.20;0.20;;;;;;;;;;4849558;29;20077;-81
2023/03/11 12:22:24;;;;;;;0.10;0.10;;;;;;;;;;4841495;29;20536;-77
2023/03/11 12:25:10;;;;;;;0.13;0.13;;;;;;;;;;4825177;29;20136;-78
2023/03/11 12:27:56;;;;;;;0.10;0.10;;;;;;;;;;4840092;29;20557;-79
2023/03/11 12:30:26;;;;;;;0.17;0.17;;;;;;;;;;4841206;29;20046;-80
2023/03/11 12:33:21;;;;;;;0.10;0.10;;;;;;;;;;4841473;29;20050;-79
2023/03/11 12:35:54;;;;;;;0.20;0.20;;;;;;;;;;4843306;29;20057;-78
2023/03/11 12:38:28;;;;;;;0.20;0.20;;;;;;;;;;4825695;29;20050;-79
2023/03/11 12:41:00;;;;;;;0.13;0.13;;;;;;;;;;4841382;29;20137;-79
2023/03/11 12:43:35;;;;;;;0.10;0.10;;;;;;;;;;4840330;29;20057;-79
2023/03/11 12:46:04;;;;;;;0.10;0.10;;;;;;;;;;4841607;29;20046;-80
2023/03/11 12:48:35;;;;;;;0.10;0.10;;;;;;;;;;4840693;29;20247;-80
2023/03/11 12:51:01;;;;;;;0.20;0.20;;;;;;;;;;4823875;29;20056;-80
2023/03/11 12:53:47;;;;;;;0.15;0.15;;;;;;;;;;4824902;29;20045;-80
2023/03/11 12:56:23;;;;;;;0.10;0.10;;;;;;;;;;4823996;29;20148;-81
2023/03/11 12:58:55;;;;;;;0.10;0.10;;;;;;;;;;4824743;29;20084;-80
2023/03/11 13:01:27;;;;;;;0.20;0.20;;;;;;;;;;4824487;29;20498;-80
2023/03/11 13:04:00;;;;;;;0.10;0.10;;;;;;;;;;4824934;29;20450;-81
2023/03/11 13:06:55;;;;;;;0.10;0.10;;;;;;;;;;4823989;29;20060;-81
2023/03/11 13:09:21;;;;;;;0.10;0.10;;;;;;;;;;4806059;29;20057;-80
2023/03/11 13:11:47;;;;;;;0.10;0.10;;;;;;;;;;4821894;29;20095;-80
2023/03/11 13:14:30;;;;;;;0.20;0.20;;;9.90;99.90;;;;;;4818822;29;20057;-79
2023/03/11 13:17:16;;;;;;;0.20;0.20;;;9.60;99.90;;;;;;4820888;29;20089;-79
2023/03/11 13:19:56;;;;;;;0.10;0.10;;;10.10;99.90;;;;;;4805935;29;20055;-79
2023/03/11 13:23:07;;;;;;;0.10;0.10;;;10.60;99.90;;;;;;4822444;29;20398;-80
2023/03/11 13:25:52;;;;;;;0.10;0.10;;;11.00;99.90;;;;;;4806505;29;20115;-79
2023/03/11 13:28:20;;;;;;;0.10;0.10;;;;;;;;;;4805553;29;20093;-80
2023/03/11 13:31:08;;;;;;;0.10;0.10;;;12.00;99.90;;;;;;4805884;29;20050;-79
2023/03/11 13:34:17;;;;;;;0.20;0.20;;;13.00;99.90;;;;;;4805680;29;20054;-79
2023/03/11 13:37:08;;;;;;;0.20;0.20;;;14.30;99.90;;;;;;4806870;29;20046;-77
2023/03/11 13:40:22;;;;;;;0.20;0.20;;;15.50;99.90;;;;;;4816895;29;20057;-78
2023/03/11 13:42:50;;;;;;;0.20;0.20;;;16.80;99.90;;;;;;4798882;29;20145;-77
2023/03/11 13:45:37;;;;;;;0.10;0.10;;;18.30;99.90;;;;;;4821810;29;20056;-77
2023/03/11 13:48:07;;;;;;;0.20;0.20;;;;;;;;;;4793908;29;20142;-77
2023/03/11 13:50:38;;;;;;;0.10;0.10;;;;;;;;;;4822682;29;20054;-77
2023/03/11 13:53:09;;;;;;;0.20;0.20;;;;;;;;;;4821696;29;20502;-77
2023/03/11 13:55:39;;;;;;;0.20;0.20;;;;;;;;;;4805966;29;20373;-77
2023/03/11 13:58:14;;;;;;;0.20;0.20;;;;;;;;;;4804432;29;20499;-78
2023/03/11 14:00:46;;;;;;;0.20;0.20;;;;;;;;;;4822110;29;20057;-78
2023/03/11 14:03:12;;;;;;;0.20;0.20;;;;;;;;;;4805177;29;20098;-77
2023/03/11 14:05:43;;;;;;;0.13;0.13;;;;;;;;;;4817942;29;20105;-78
2023/03/11 14:08:17;;;;;;;0.20;0.20;;;16.20;93.00;;;;;;4823113;29;20149;-77
2023/03/11 14:10:58;;;;;;;0.20;0.20;;;16.40;93.30;;;;;;4823811;29;20574;-77
2023/03/11 14:13:25;;;;;;;0.20;0.20;;;;;;;;;;4839582;29;20072;-77
2023/03/11 14:15:54;;;;;;;0.10;0.10;;;;;;;;;;4823521;29;20133;-77
2023/03/11 14:18:31;;;;;;;0.10;0.10;;;;;;;;;;4820088;29;20212;-78
2023/03/11 14:20:57;;;;;;;0.20;0.20;;;;;;;;;;4821587;29;20049;-78
2023/03/11 14:23:26;;;;;;;0.17;0.17;;;;;;;;;;4821264;29;20485;-78
2023/03/11 14:26:12;;;;;;;0.20;0.20;;;;;;;;;;4805581;29;20479;-77
2023/03/11 14:28:40;;;;;;;0.20;0.20;;;;;;;;;;4820735;29;20065;-78
2023/03/11 14:31:37;;;;;;;0.20;0.20;;;;;;;;;;4805638;29;20384;-79
2023/03/11 14:34:11;;;;;;;0.20;0.20;;;;;;;;;;4808533;29;20053;-78
2023/03/11 14:36:44;;;;;;;0.20;0.20;;;;;;;;;;4822845;29;20054;-78
2023/03/11 14:39:30;;;;;;;0.17;0.17;;;;;;;;;;4823457;29;20050;-77
2023/03/11 14:41:59;;;;;;;0.10;0.10;;;;;;;;;;4821567;29;20047;-77
2023/03/11 14:44:26;;;;;;;0.20;0.20;;;;;;;;;;4823264;29;20406;-77
2023/03/11 14:47:04;;;;;;;0.10;0.10;;;;;;;;;;4839529;29;20041;-77
2023/03/11 14:49:30;;;;;;;0.17;0.17;;;;;;;;;;4822401;29;20034;-78
2023/03/11 14:52:01;;;;;;;0.10;0.10;;;;;;;;;;4839465;29;20057;-77
2023/03/11 14:54:27;;;;;;;;;;;;;;;;;;4822948;29;20049;-77